createdAt,value
2019-04-25T00:01:27.340Z,0.70
2019-04-25T00:03:55.562Z,0.70
2019-04-25T00:06:25.480Z,0.65
2019-04-25T00:08:53.715Z,0.70
2019-04-25T00:11:22.069Z,0.70
2019-04-25T00:13:51.599Z,0.60
2019-04-25T00:16:21.648Z,0.80
2019-04-25T00:18:49.820Z,0.80
2019-04-25T00:21:22.543Z,0.60
2019-04-25T00:23:55.447Z,0.70
2019-04-25T00:26:25.365Z,0.70
2019-04-25T00:28:53.583Z,0.70
2019-04-25T00:31:22.087Z,0.70
2019-04-25T00:33:50.337Z,0.80
2019-04-25T00:36:18.614Z,1.00
2019-04-25T00:38:48.243Z,0.72
2019-04-25T00:41:16.941Z,0.98
2019-04-25T00:43:45.392Z,0.70
2019-04-25T00:46:13.608Z,0.80
2019-04-25T00:48:43.142Z,0.80
2019-04-25T00:51:11.833Z,0.90
2019-04-25T00:53:41.811Z,0.70
2019-04-25T00:56:11.256Z,0.70
2019-04-25T00:58:44.453Z,0.90
2019-04-25T01:01:23.996Z,0.70
2019-04-25T01:03:53.654Z,0.70
2019-04-25T01:06:22.396Z,0.68
2019-04-25T01:08:53.239Z,0.50
2019-04-25T01:11:21.500Z,0.50
2019-04-25T01:13:50.859Z,0.50
2019-04-25T01:16:20.156Z,0.60
2019-04-25T01:18:48.766Z,0.50
2019-04-25T01:21:16.990Z,0.60
2019-04-25T01:23:45.823Z,0.72
2019-04-25T01:26:14.182Z,0.60
2019-04-25T01:28:43.894Z,0.50
2019-04-25T01:31:14.115Z,0.50
2019-04-25T01:33:43.336Z,0.50
2019-04-25T01:36:29.637Z,0.50
2019-04-25T01:38:59.555Z,0.53
2019-04-25T01:41:45.532Z,0.50
2019-04-25T01:44:24.200Z,0.60
2019-04-25T01:46:54.203Z,0.60
2019-04-25T01:49:23.922Z,0.82
2019-04-25T01:51:54.137Z,0.50
2019-04-25T01:54:23.793Z,0.50
2019-04-25T01:56:53.561Z,0.47
2019-04-25T01:59:23.654Z,0.60
2019-04-25T02:01:54.591Z,0.47
2019-04-25T02:04:23.195Z,0.50
2019-04-25T02:06:53.666Z,0.60
2019-04-25T02:09:23.559Z,0.40
2019-04-25T02:11:54.739Z,0.60
2019-04-25T02:14:23.771Z,0.80
2019-04-25T02:16:53.194Z,0.53
2019-04-25T02:19:22.123Z,0.50
2019-04-25T02:21:50.471Z,0.40
2019-04-25T02:24:18.747Z,0.62
2019-04-25T02:26:46.971Z,0.50
2019-04-25T02:29:15.243Z,0.55
2019-04-25T02:31:44.980Z,0.60
2019-04-25T02:34:17.430Z,0.60
2019-04-25T02:36:46.507Z,0.55
2019-04-25T02:39:15.623Z,0.50
2019-04-25T02:41:44.478Z,0.50
2019-04-25T02:44:14.567Z,0.50
2019-04-25T02:46:55.826Z,0.70
2019-04-25T02:49:36.873Z,0.50
2019-04-25T02:52:08.456Z,0.60
2019-04-25T02:57:06.555Z,0.60
2019-04-25T02:59:36.630Z,0.40
2019-04-25T03:02:05.402Z,0.55
2019-04-25T03:04:33.911Z,0.42
2019-04-25T03:07:07.189Z,0.53
2019-04-25T03:09:35.028Z,0.60
2019-04-25T03:12:04.895Z,0.62
2019-04-25T03:14:34.971Z,0.53
2019-04-25T03:17:05.111Z,0.70
2019-04-25T03:19:37.176Z,0.50
2019-04-25T03:22:11.714Z,0.50
2019-04-25T03:24:39.462Z,0.53
2019-04-25T03:27:07.694Z,0.70
2019-04-25T03:29:35.985Z,0.60
2019-04-25T03:32:09.260Z,0.60
2019-04-25T03:34:35.077Z,0.68
2019-04-25T03:37:05.290Z,0.57
2019-04-25T03:39:33.757Z,0.70
2019-04-25T03:42:02.224Z,0.62
2019-04-25T03:44:31.088Z,0.70
2019-04-25T03:46:59.418Z,0.82
2019-04-25T03:49:27.649Z,0.80
2019-04-25T03:51:55.939Z,0.98
2019-04-25T03:54:24.174Z,0.80
2019-04-25T03:56:55.912Z,0.60
2019-04-25T03:59:23.661Z,0.85
2019-04-25T04:01:53.707Z,0.70
2019-04-25T04:04:23.574Z,0.72
2019-04-25T04:06:53.623Z,0.70
2019-04-25T04:09:23.889Z,0.60
2019-04-25T04:11:53.460Z,0.68
2019-04-25T04:14:23.825Z,0.60
2019-04-25T04:17:10.727Z,0.50
2019-04-25T04:19:41.029Z,0.60
2019-04-25T04:22:24.140Z,0.70
2019-04-25T04:24:54.078Z,0.60
2019-04-25T04:27:23.876Z,0.60
2019-04-25T04:29:52.252Z,0.80
2019-04-25T04:32:20.493Z,0.80
2019-04-25T04:34:48.775Z,0.80
2019-04-25T04:37:17.564Z,0.85
2019-04-25T04:39:46.067Z,0.82
2019-04-25T04:42:14.939Z,0.70
2019-04-25T04:44:44.146Z,0.57
2019-04-25T04:47:14.086Z,0.98
2019-04-25T04:49:43.966Z,0.70
2019-04-25T04:52:12.912Z,0.80
2019-04-25T04:54:43.878Z,0.60
2019-04-25T04:57:23.222Z,0.70
2019-04-25T04:59:43.829Z,0.90
2019-04-25T05:02:15.789Z,0.80
2019-04-25T05:05:03.570Z,0.90
2019-04-25T05:07:43.935Z,0.95
2019-04-25T05:10:13.526Z,0.93
2019-04-25T05:12:43.793Z,0.90
2019-04-25T05:15:14.839Z,0.93
2019-04-25T05:17:43.928Z,1.10
2019-04-25T05:20:13.316Z,0.85
2019-04-25T05:22:42.351Z,0.70
2019-04-25T05:25:10.587Z,1.02
2019-04-25T05:27:56.759Z,0.93
2019-04-25T05:30:10.920Z,0.70
2019-04-25T05:32:39.212Z,1.20
2019-04-25T05:35:07.424Z,0.98
2019-04-25T05:37:35.697Z,1.00
2019-04-25T05:40:07.337Z,0.95
2019-04-25T05:42:39.936Z,0.93
2019-04-25T05:45:08.167Z,0.70
2019-04-25T05:47:36.457Z,0.90
2019-04-25T05:50:06.363Z,1.00
2019-04-25T05:52:34.583Z,0.98
2019-04-25T05:55:03.972Z,0.80
2019-04-25T05:57:44.883Z,1.10
2019-04-25T06:00:03.678Z,1.20
2019-04-25T06:02:32.009Z,1.00
2019-04-25T06:05:00.276Z,1.07
2019-04-25T06:07:28.517Z,1.00
2019-04-25T06:09:58.431Z,0.98
2019-04-25T06:12:28.303Z,0.80
2019-04-25T06:14:56.585Z,0.80
2019-04-25T06:17:26.452Z,1.00
2019-04-25T06:19:56.155Z,0.88
2019-04-25T06:22:26.823Z,0.93
2019-04-25T06:24:57.046Z,0.80
2019-04-25T06:27:27.143Z,0.90
2019-04-25T06:29:59.173Z,1.00
2019-04-25T06:32:27.010Z,1.05
2019-04-25T06:34:55.240Z,0.88
2019-04-25T06:37:24.927Z,0.90
2019-04-25T06:39:53.740Z,0.90
2019-04-25T06:42:23.060Z,0.88
2019-04-25T06:45:03.572Z,1.02
2019-04-25T06:47:36.334Z,0.95
2019-04-25T06:50:05.791Z,0.88
2019-04-25T06:52:35.414Z,0.80
2019-04-25T06:55:06.004Z,0.88
2019-04-25T06:57:34.294Z,0.90
2019-04-25T07:00:04.328Z,1.00
2019-04-25T07:02:33.576Z,0.80
2019-04-25T07:05:03.954Z,0.80
2019-04-25T07:07:34.208Z,1.20
2019-04-25T07:10:03.636Z,0.80
2019-04-25T07:12:33.014Z,0.70
2019-04-25T07:15:03.806Z,1.00
2019-04-25T07:17:34.312Z,0.90
2019-04-25T07:20:03.842Z,1.02
2019-04-25T07:22:33.533Z,0.85
2019-04-25T07:25:03.637Z,0.88
2019-04-25T07:27:39.530Z,0.90
2019-04-25T07:30:26.712Z,0.75
2019-04-25T07:32:48.701Z,0.82
2019-04-25T07:35:17.045Z,1.00
2019-04-25T07:37:45.283Z,0.95
2019-04-25T07:40:13.982Z,0.90
2019-04-25T07:42:43.885Z,0.80
2019-04-25T07:45:13.906Z,0.90
2019-04-25T07:47:44.120Z,0.90
2019-04-25T07:50:13.915Z,0.98
2019-04-25T07:52:44.185Z,0.80
2019-04-25T07:55:13.769Z,1.05
2019-04-25T07:57:44.189Z,0.88
2019-04-25T08:00:13.371Z,0.80
2019-04-25T08:02:43.434Z,0.70
2019-04-25T08:05:14.403Z,1.00
2019-04-25T08:07:43.696Z,0.93
2019-04-25T08:10:13.911Z,0.80
2019-04-25T08:12:44.416Z,0.90
2019-04-25T08:15:29.959Z,0.88
2019-04-25T08:18:05.808Z,0.80
2019-04-25T08:20:34.702Z,1.02
2019-04-25T08:23:04.367Z,0.90
2019-04-25T08:25:33.786Z,1.00
2019-04-25T08:28:03.810Z,1.07
2019-04-25T08:30:34.187Z,1.00
2019-04-25T08:33:03.866Z,0.80
2019-04-25T08:35:34.237Z,0.80
2019-04-25T08:38:05.812Z,0.80
2019-04-25T08:40:35.995Z,0.80
2019-04-25T08:43:03.630Z,1.00
2019-04-25T08:45:33.087Z,0.70
2019-04-25T08:48:03.550Z,0.90
2019-04-25T08:50:49.854Z,0.70
2019-04-25T08:53:18.090Z,0.60
2019-04-25T08:55:56.849Z,0.60
2019-04-25T08:58:44.678Z,0.60
2019-04-25T09:01:14.579Z,0.50
2019-04-25T09:03:50.206Z,0.50
2019-04-25T09:06:18.651Z,0.70
2019-04-25T09:08:46.929Z,0.62
2019-04-25T09:11:15.274Z,0.60
2019-04-25T09:13:44.926Z,0.60
2019-04-25T09:16:15.307Z,0.72
2019-04-25T09:18:44.295Z,0.60
2019-04-25T09:21:13.820Z,0.60
2019-04-25T09:23:43.720Z,0.70
2019-04-25T09:26:12.260Z,0.60
2019-04-25T09:28:41.061Z,0.60
2019-04-25T09:31:10.141Z,0.65
2019-04-25T09:33:39.149Z,0.70
2019-04-25T09:36:07.497Z,0.68
2019-04-25T09:38:36.862Z,0.70
2019-04-25T09:41:05.442Z,0.82
2019-04-25T09:43:33.727Z,0.70
2019-04-25T09:46:03.595Z,0.57
2019-04-25T09:48:35.379Z,0.80
2019-04-25T09:51:20.420Z,0.70
2019-04-25T09:53:51.487Z,0.90
2019-04-25T09:56:21.798Z,0.68
2019-04-25T09:58:51.681Z,0.68
2019-04-25T10:01:20.030Z,0.50
2019-04-25T10:03:48.250Z,0.60
2019-04-25T10:06:17.300Z,0.70
2019-04-25T10:08:46.314Z,0.70
2019-04-25T10:11:14.946Z,0.68
2019-04-25T10:13:46.599Z,0.62
2019-04-25T10:16:14.832Z,0.82
2019-04-25T10:18:44.358Z,0.80
2019-04-25T10:21:14.352Z,0.93
2019-04-25T10:23:44.070Z,0.90
2019-04-25T10:26:13.251Z,0.70
2019-04-25T10:28:43.671Z,0.60
2019-04-25T10:31:13.486Z,0.80
2019-04-25T10:33:43.745Z,1.05
2019-04-25T10:36:14.308Z,0.80
2019-04-25T10:38:44.412Z,0.70
2019-04-25T10:41:14.215Z,0.80
2019-04-25T10:43:42.664Z,0.90
2019-04-25T10:46:10.903Z,0.80
2019-04-25T10:48:40.103Z,0.55
2019-04-25T10:51:08.521Z,0.57
2019-04-25T10:53:36.746Z,0.70
2019-04-25T10:56:05.972Z,0.62
2019-04-25T10:58:35.294Z,0.70
2019-04-25T11:01:04.967Z,0.70
2019-04-25T11:03:34.907Z,0.85
2019-04-25T11:06:03.927Z,0.68
2019-04-25T11:08:34.016Z,0.70
2019-04-25T11:11:03.765Z,0.82
2019-04-25T11:13:33.964Z,0.60
2019-04-25T11:16:03.521Z,0.70
2019-04-25T11:18:31.921Z,0.60
2019-04-25T11:21:00.158Z,0.80
2019-04-25T11:23:28.441Z,0.80
2019-04-25T11:25:56.662Z,0.72
2019-04-25T11:28:24.941Z,0.72
2019-04-25T11:30:54.489Z,0.60
2019-04-25T11:33:24.674Z,0.60
2019-04-25T11:35:53.576Z,0.60
2019-04-25T11:38:24.637Z,0.60
2019-04-25T11:40:57.471Z,0.80
2019-04-25T11:43:25.694Z,0.82
2019-04-25T11:45:55.767Z,0.70
2019-04-25T11:48:23.945Z,0.68
2019-04-25T11:50:53.263Z,0.68
2019-04-25T11:53:24.785Z,0.95
2019-04-25T11:55:53.752Z,0.90
2019-04-25T11:58:23.578Z,1.50
2019-04-25T12:00:54.144Z,0.78
2019-04-25T12:03:23.225Z,0.70
2019-04-25T12:05:53.149Z,0.80
2019-04-25T12:08:21.776Z,3.87
2019-04-25T12:10:50.056Z,1.00
2019-04-25T12:13:18.305Z,1.30
2019-04-25T12:15:47.098Z,0.88
2019-04-25T12:18:15.708Z,0.98
2019-04-25T12:20:46.171Z,1.02
2019-04-25T12:23:14.475Z,1.32
2019-04-25T12:25:45.335Z,0.80
2019-04-25T12:28:14.150Z,0.85
2019-04-25T12:30:43.884Z,0.95
2019-04-25T12:33:20.345Z,0.78
2019-04-25T12:35:43.692Z,1.02
2019-04-25T12:38:12.110Z,0.95
2019-04-25T12:40:40.920Z,1.00
2019-04-25T12:43:09.234Z,1.00
2019-04-25T12:45:43.309Z,0.98
2019-04-25T12:48:14.504Z,0.95
2019-04-25T12:50:43.969Z,0.80
2019-04-25T12:53:13.913Z,0.85
2019-04-25T12:55:42.269Z,0.98
2019-04-25T12:58:10.614Z,0.88
2019-04-25T13:00:48.039Z,0.80
2019-04-25T13:03:08.843Z,0.82
2019-04-25T13:05:37.234Z,0.70
2019-04-25T13:08:05.472Z,0.93
2019-04-25T13:10:34.553Z,0.88
2019-04-25T13:13:03.975Z,0.90
2019-04-25T13:15:35.705Z,1.35
2019-04-25T13:18:03.649Z,0.68
2019-04-25T13:20:31.908Z,0.80
2019-04-25T13:23:00.603Z,0.90
2019-04-25T13:25:29.136Z,0.80
2019-04-25T13:27:59.594Z,0.90
2019-04-25T13:30:41.615Z,0.88
2019-04-25T13:33:13.296Z,0.82
2019-04-25T13:36:02.087Z,0.70
2019-04-25T13:38:30.499Z,0.75
2019-04-25T13:40:59.412Z,0.80
2019-04-25T13:43:27.885Z,0.80
2019-04-25T13:45:56.887Z,0.70
2019-04-25T13:48:26.534Z,0.75
2019-04-25T13:50:55.181Z,0.70
2019-04-25T13:53:24.672Z,0.80
2019-04-25T13:55:53.745Z,0.95
2019-04-25T13:58:22.266Z,0.75
2019-04-25T14:00:50.818Z,0.80
2019-04-25T14:03:19.084Z,0.80
2019-04-25T14:05:47.321Z,0.80
2019-04-25T14:08:15.611Z,0.80
2019-04-25T14:10:44.329Z,0.60
2019-04-25T14:13:13.492Z,0.80
2019-04-25T14:15:45.082Z,0.72
2019-04-25T14:18:18.106Z,0.70
2019-04-25T14:20:47.985Z,0.65
2019-04-25T14:23:16.209Z,0.90
2019-04-25T14:25:44.496Z,0.68
2019-04-25T14:28:14.138Z,1.10
2019-04-25T14:30:43.847Z,1.00
2019-04-25T14:33:13.572Z,0.60
2019-04-25T14:35:42.034Z,0.70
2019-04-25T14:38:10.274Z,0.90
2019-04-25T14:40:38.554Z,0.68
2019-04-25T14:43:07.058Z,0.68
2019-04-25T14:45:44.295Z,0.60
2019-04-25T14:48:05.356Z,0.60
2019-04-25T14:50:34.016Z,0.80
2019-04-25T14:53:02.744Z,0.85
2019-04-25T14:55:32.622Z,0.80
2019-04-25T14:58:02.538Z,0.80
2019-04-25T15:00:41.574Z,0.80
2019-04-25T15:03:10.148Z,1.30
2019-04-25T15:05:43.567Z,0.80
2019-04-25T15:08:12.232Z,0.68
2019-04-25T15:10:40.462Z,0.80
2019-04-25T15:13:08.816Z,0.80
2019-04-25T15:15:37.050Z,0.80
2019-04-25T15:18:05.323Z,0.80
2019-04-25T15:20:34.430Z,1.15
2019-04-25T15:23:02.718Z,0.70
2019-04-25T15:25:31.787Z,0.50
2019-04-25T15:28:00.348Z,0.72
2019-04-25T15:30:30.270Z,0.70
2019-04-25T15:32:58.893Z,0.70
2019-04-25T15:35:32.132Z,1.07
2019-04-25T15:38:08.326Z,0.80
2019-04-25T15:40:44.041Z,1.10
2019-04-25T15:43:16.361Z,1.00
2019-04-25T15:45:46.279Z,1.12
2019-04-25T15:48:14.519Z,0.75
2019-04-25T15:50:42.889Z,0.88
2019-04-25T15:53:11.241Z,1.02
2019-04-25T15:55:39.470Z,0.90
2019-04-25T15:58:07.753Z,0.85
2019-04-25T16:00:37.255Z,0.60
2019-04-25T16:03:05.839Z,0.78
2019-04-25T16:05:35.575Z,0.70
2019-04-25T16:08:04.556Z,0.70
2019-04-25T16:10:32.785Z,0.70
2019-04-25T16:13:01.062Z,0.60
2019-04-25T16:15:29.309Z,1.15
2019-04-25T16:17:57.629Z,0.80
2019-04-25T16:20:25.836Z,0.90
2019-04-25T16:22:54.074Z,0.88
2019-04-25T16:25:22.900Z,0.70
2019-04-25T16:27:51.301Z,0.90
2019-04-25T16:30:21.222Z,0.88
2019-04-25T16:32:49.463Z,0.80
2019-04-25T16:35:17.795Z,0.98
2019-04-25T16:37:46.022Z,1.00
2019-04-25T16:40:14.288Z,0.90
2019-04-25T16:42:42.523Z,0.70
2019-04-25T16:45:10.878Z,0.82
2019-04-25T16:47:39.186Z,1.02
2019-04-25T16:50:07.494Z,0.82
2019-04-25T16:52:35.888Z,0.90
2019-04-25T16:55:06.134Z,0.90
2019-04-25T16:57:34.840Z,0.85
2019-04-25T17:00:05.075Z,0.80
2019-04-25T17:02:37.530Z,0.90
2019-04-25T17:05:03.550Z,0.90
2019-04-25T17:07:31.913Z,0.62
2019-04-25T17:10:00.125Z,0.70
2019-04-25T17:12:28.418Z,0.60
2019-04-25T17:15:04.155Z,0.65
2019-04-25T17:17:34.103Z,0.70
2019-04-25T17:20:12.979Z,0.60
2019-04-25T17:22:41.546Z,1.02
2019-04-25T17:25:10.639Z,0.82
2019-04-25T17:27:39.169Z,1.12
2019-04-25T17:30:07.669Z,0.80
2019-04-25T17:32:50.393Z,0.90
2019-04-25T17:35:23.840Z,0.90
2019-04-25T17:37:53.717Z,0.80
2019-04-25T17:40:26.396Z,0.80
2019-04-25T17:42:54.627Z,1.10
2019-04-25T17:45:24.547Z,1.17
2019-04-25T17:47:54.945Z,1.22
2019-04-25T17:50:22.790Z,0.90
2019-04-25T17:52:51.025Z,0.90
2019-04-25T17:55:19.410Z,0.90
2019-04-25T17:57:47.650Z,0.80
2019-04-25T18:00:33.803Z,0.95
2019-04-25T18:03:02.084Z,0.82
2019-04-25T18:05:30.380Z,0.80
2019-04-25T18:07:58.606Z,1.20
2019-04-25T18:10:27.621Z,1.00
2019-04-25T18:12:55.970Z,0.90
2019-04-25T18:15:25.838Z,1.10
2019-04-25T18:17:54.175Z,1.10
2019-04-25T18:20:24.062Z,0.90
2019-04-25T18:22:53.974Z,1.02
2019-04-25T18:25:29.825Z,1.00
2019-04-25T18:27:59.767Z,1.00
2019-04-25T18:30:28.076Z,0.90
2019-04-25T18:33:14.316Z,1.00
2019-04-25T18:35:44.205Z,0.85
2019-04-25T18:38:14.080Z,1.02
2019-04-25T18:41:00.379Z,1.07
2019-04-25T18:43:33.457Z,0.98
2019-04-25T18:46:06.033Z,0.80
2019-04-25T18:48:34.261Z,1.12
2019-04-25T18:51:02.599Z,1.00
2019-04-25T18:53:39.195Z,1.07
2019-04-25T18:56:17.771Z,0.85
2019-04-25T18:59:04.007Z,0.78
2019-04-25T19:01:43.667Z,0.80
2019-04-25T19:04:30.365Z,0.90
2019-04-25T19:06:58.719Z,0.95
2019-04-25T19:09:27.054Z,1.00
2019-04-25T19:11:55.547Z,0.80
2019-04-25T19:14:23.774Z,0.80
2019-04-25T19:16:52.088Z,1.00
2019-04-25T19:19:20.323Z,1.10
2019-04-25T19:21:48.770Z,1.07
2019-04-25T19:24:17.002Z,1.10
2019-04-25T19:26:46.083Z,1.10
2019-04-25T19:29:14.496Z,1.05
2019-04-25T19:31:42.851Z,1.00
2019-04-25T19:34:11.138Z,1.05
2019-04-25T19:36:40.404Z,0.93
2019-04-25T19:39:09.532Z,1.30
2019-04-25T19:41:45.416Z,1.00
2019-04-25T19:44:21.517Z,0.88
2019-04-25T19:46:51.393Z,0.85
2019-04-25T19:49:19.682Z,1.25
2019-04-25T19:51:47.921Z,1.30
2019-04-25T19:54:16.234Z,1.00
2019-04-25T19:56:45.349Z,1.32
2019-04-25T19:59:13.994Z,1.30
2019-04-25T20:01:42.626Z,1.02
2019-04-25T20:04:25.086Z,1.22
2019-04-25T20:09:48.997Z,0.88
2019-04-25T20:12:17.278Z,0.93
2019-04-25T20:14:45.575Z,0.85
2019-04-25T20:17:13.811Z,0.80
2019-04-25T20:19:42.064Z,0.85
2019-04-25T20:22:10.320Z,1.00
2019-04-25T20:24:38.557Z,1.07
2019-04-25T20:27:06.828Z,0.90
2019-04-25T20:29:35.054Z,1.05
2019-04-25T20:32:03.363Z,0.90
2019-04-25T20:34:31.584Z,1.00
2019-04-25T20:36:59.869Z,1.10
2019-04-25T20:39:28.090Z,1.27
2019-04-25T20:41:56.366Z,0.80
2019-04-25T20:44:24.607Z,0.98
2019-04-25T20:46:52.959Z,0.90
2019-04-25T20:49:21.187Z,0.90
2019-04-25T20:51:50.533Z,1.10
2019-04-25T20:54:18.973Z,0.98
2019-04-25T20:56:48.177Z,1.10
2019-04-25T20:59:17.543Z,1.10
2019-04-25T21:01:45.822Z,1.22
2019-04-25T21:04:32.063Z,1.02
2019-04-25T21:07:01.227Z,1.07
2019-04-25T21:09:29.843Z,1.10
2019-04-25T21:11:58.139Z,1.32
2019-04-25T21:14:30.957Z,1.17
2019-04-25T21:17:15.866Z,0.90
2019-04-25T21:19:52.806Z,1.10
2019-04-25T21:22:21.164Z,1.37
2019-04-25T21:24:49.486Z,1.20
2019-04-25T21:27:18.854Z,1.10
2019-04-25T21:29:47.075Z,1.20
2019-04-25T21:32:17.004Z,1.20
2019-04-25T21:34:45.520Z,1.20
2019-04-25T21:37:14.515Z,1.10
2019-04-25T21:39:52.257Z,1.20
2019-04-25T21:42:22.320Z,1.07
2019-04-25T21:44:51.796Z,1.40
2019-04-25T21:47:21.031Z,1.20
2019-04-25T21:49:49.686Z,0.98
2019-04-25T21:52:18.200Z,1.20
2019-04-25T21:54:48.603Z,1.30
2019-04-25T21:57:16.603Z,1.05
2019-04-25T21:59:45.064Z,1.20
2019-04-25T22:02:13.380Z,1.07
2019-04-25T22:04:42.754Z,1.10
2019-04-25T22:07:11.746Z,1.05
2019-04-25T22:09:40.298Z,1.05
2019-04-25T22:12:09.948Z,1.00
2019-04-25T22:14:38.230Z,1.05
2019-04-25T22:17:07.923Z,1.12
2019-04-25T22:19:36.582Z,1.00
2019-04-25T22:22:04.982Z,1.00
2019-04-25T22:24:33.270Z,1.00
2019-04-25T22:27:03.329Z,0.90
2019-04-25T22:29:33.192Z,0.90
2019-04-25T22:32:03.173Z,1.00
2019-04-25T22:34:33.475Z,1.02
2019-04-25T22:37:02.081Z,0.95
2019-04-25T22:39:30.696Z,1.20
2019-04-25T22:41:59.534Z,1.10
2019-04-25T22:44:29.063Z,1.20
2019-04-25T22:46:57.715Z,1.30
2019-04-25T22:49:26.109Z,1.17
2019-04-25T22:51:54.385Z,1.30
2019-04-25T22:54:23.760Z,1.30
2019-04-25T22:56:52.099Z,1.30
2019-04-25T22:59:20.405Z,1.07
2019-04-25T23:01:50.325Z,1.50
2019-04-25T23:04:20.200Z,1.40
2019-04-25T23:06:48.437Z,1.22
2019-04-25T23:09:16.717Z,1.60
2019-04-25T23:11:45.231Z,1.67
2019-04-25T23:14:13.886Z,1.50
2019-04-25T23:16:42.127Z,1.50
2019-04-25T23:19:11.244Z,1.42
2019-04-25T23:21:39.910Z,1.42
2019-04-25T23:24:08.186Z,1.70
2019-04-25T23:26:38.346Z,1.40
2019-04-25T23:29:08.448Z,1.77
2019-04-25T23:31:38.324Z,2.17
2019-04-25T23:34:07.042Z,1.70
2019-04-25T23:36:35.395Z,1.70
2019-04-25T23:39:06.374Z,1.80
2019-04-25T23:41:35.835Z,1.70
2019-04-25T23:44:05.395Z,2.10
2019-04-25T23:46:33.965Z,1.57
2019-04-25T23:49:02.867Z,1.70
2019-04-25T23:51:31.108Z,1.52
2019-04-25T23:54:00.196Z,1.60
2019-04-25T23:56:28.473Z,1.75
2019-04-25T23:58:56.882Z,1.20
